Time;durP1;ratioP1;P1;durP2;ratioP2;P2;SDS_P1;SDS_P2;PMS_P1;PMS_P2;Temp;Humidity;BMP_temperature;BMP_pressure;BME280_temperature;BME280_humidity;BME280_pressure;Samples;Min_cycle;Max_cycle;Signal;HPM_P1;HPM_P2
2022/07/02 00:01:37;;;;;;;12.10;6.87;;;19.90;99.90;;;;;;4976679;28;20248;-87
2022/07/02 00:04:06;;;;;;;9.13;6.63;;;19.90;99.90;;;;;;4974607;28;20209;-86
2022/07/02 00:06:37;;;;;;;11.57;7.10;;;20.00;99.90;;;;;;4960363;28;20224;-87
2022/07/02 00:09:04;;;;;;;18.00;7.53;;;20.10;99.90;;;;;;4982787;28;20648;-85
2022/07/02 00:11:32;;;;;;;10.67;7.13;;;20.10;99.90;;;;;;4979077;28;20223;-87
2022/07/02 00:14:00;;;;;;;17.63;11.53;;;20.10;99.90;;;;;;4960659;28;20252;-88
2022/07/02 00:16:28;;;;;;;9.37;7.20;;;20.10;99.90;;;;;;4973363;28;20556;-87
2022/07/02 00:18:55;;;;;;;12.57;7.23;;;20.10;99.90;;;;;;4957416;28;20202;-81
2022/07/02 00:21:23;;;;;;;10.23;8.17;;;20.20;99.90;;;;;;4957347;28;20277;-81
2022/07/02 00:23:51;;;;;;;12.40;7.43;;;20.20;99.90;;;;;;4957129;28;20205;-77
2022/07/02 00:26:27;;;;;;;10.27;7.30;;;20.00;99.90;;;;;;4956786;28;20295;-83
2022/07/02 00:29:11;;;;;;;14.43;8.07;;;19.90;99.90;;;;;;4973299;28;20288;-76
2022/07/02 00:31:38;;;;;;;13.17;7.83;;;20.00;99.90;;;;;;4957001;28;20225;-74
2022/07/02 00:34:06;;;;;;;10.73;7.43;;;20.10;99.90;;;;;;4974523;28;20190;-83
2022/07/02 00:36:33;;;;;;;10.37;7.93;;;20.10;99.90;;;;;;4957477;28;20210;-76
2022/07/02 00:39:00;;;;;;;11.00;7.90;;;20.10;99.90;;;;;;4957400;28;20626;-76
2022/07/02 00:41:29;;;;;;;10.93;8.40;;;20.00;99.90;;;;;;4956804;28;20296;-77
2022/07/02 00:43:57;;;;;;;11.73;8.60;;;19.90;99.90;;;;;;4956739;28;20674;-77
2022/07/02 00:46:27;;;;;;;13.53;9.23;;;19.90;99.90;;;;;;4956875;28;20229;-77
2022/07/02 00:48:54;;;;;;;13.33;9.57;;;19.90;99.90;;;;;;4974584;28;20189;-76
2022/07/02 00:51:21;;;;;;;14.00;9.80;;;19.80;99.90;;;;;;4957065;28;20670;-78
2022/07/02 00:53:48;;;;;;;17.00;11.07;;;19.70;99.90;;;;;;4974660;28;20236;-84
2022/07/02 00:56:15;;;;;;;15.97;10.63;;;19.60;99.90;;;;;;4974096;28;20235;-75
2022/07/02 00:58:43;;;;;;;16.60;11.23;;;19.80;99.90;;;;;;4972854;28;20225;-78
2022/07/02 01:01:10;;;;;;;17.90;11.77;;;19.70;99.90;;;;;;4973440;28;20228;-78
2022/07/02 01:03:38;;;;;;;16.30;11.70;;;19.80;99.90;;;;;;4956863;28;20284;-78
2022/07/02 01:06:05;;;;;;;14.40;10.50;;;19.80;99.90;;;;;;4974706;28;20201;-78
2022/07/02 01:11:19;;;;;;;17.27;11.87;;;19.70;99.90;;;;;;4956760;28;20239;-88
2022/07/02 01:13:47;;;;;;;16.37;11.80;;;19.70;99.90;;;;;;4973995;28;20637;-86
2022/07/02 01:16:14;;;;;;;17.50;12.23;;;19.80;99.90;;;;;;4974012;28;20205;-88
2022/07/02 01:18:41;;;;;;;17.70;12.60;;;19.70;99.90;;;;;;4974711;28;20197;-89
2022/07/02 01:21:09;;;;;;;21.80;12.70;;;19.80;99.90;;;;;;4973107;28;20202;-88
2022/07/02 01:23:36;;;;;;;16.57;11.83;;;19.80;99.90;;;;;;4956990;28;20208;-84
2022/07/02 01:26:03;;;;;;;17.33;12.13;;;19.80;99.90;;;;;;4956438;28;20596;-86
2022/07/02 01:28:30;;;;;;;16.33;12.03;;;19.80;99.90;;;;;;4956748;28;20225;-87
2022/07/02 01:30:57;;;;;;;18.90;13.73;;;19.80;99.90;;;;;;4974110;28;20209;-77
2022/07/02 01:33:24;;;;;;;18.03;14.33;;;19.80;99.90;;;;;;4973806;28;20217;-78
2022/07/02 01:35:51;;;;;;;19.90;13.77;;;19.90;99.90;;;;;;4974429;28;20212;-78
2022/07/02 01:38:18;;;;;;;24.07;14.03;;;19.90;99.90;;;;;;4960528;28;20207;-80
2022/07/02 01:40:45;;;;;;;17.63;13.13;;;19.90;99.90;;;;;;4943982;28;20665;-83
2022/07/02 01:43:12;;;;;;;19.50;14.53;;;20.00;99.90;;;;;;4977169;28;20198;-81
2022/07/02 01:45:39;;;;;;;21.23;15.03;;;20.00;99.90;;;;;;4960066;28;20312;-76
2022/07/02 01:48:06;;;;;;;17.67;14.17;;;20.00;99.90;;;;;;4976588;28;20718;-82
2022/07/02 01:50:36;;;;;;;23.80;16.50;;;20.00;99.90;;;;;;4975787;28;20201;-83
2022/07/02 01:53:03;;;;;;;21.63;16.07;;;20.00;99.90;;;;;;4959923;28;20631;-77
2022/07/02 01:55:30;;;;;;;21.83;15.30;;;20.10;99.90;;;;;;4975879;28;20206;-85
2022/07/02 01:57:57;;;;;;;21.80;15.10;;;20.10;99.90;;;;;;4976059;28;20638;-76
2022/07/02 02:00:24;;;;;;;19.73;15.40;;;20.20;99.90;;;;;;4976193;28;20205;-86
2022/07/02 02:02:52;;;;;;;21.93;16.00;;;20.20;99.90;;;;;;4977220;28;20627;-77
2022/07/02 02:05:19;;;;;;;22.93;16.17;;;20.20;99.90;;;;;;4959752;28;20186;-85
2022/07/02 02:07:47;;;;;;;22.67;16.50;;;20.20;99.90;;;;;;4976771;28;20225;-77
2022/07/02 02:10:14;;;;;;;22.77;16.53;;;20.20;99.90;;;;;;4959738;28;20208;-76
2022/07/02 02:12:41;;;;;;;23.57;16.43;;;20.30;99.90;;;;;;4975298;28;20233;-83
2022/07/02 02:15:08;;;;;;;23.53;17.87;;;20.30;99.90;;;;;;4959978;28;20193;-87
2022/07/02 02:17:35;;;;;;;21.17;17.50;;;20.30;99.90;;;;;;4976057;28;20285;-85
2022/07/02 02:20:02;;;;;;;21.73;16.27;;;20.30;99.90;;;;;;4976718;28;20570;-83
2022/07/02 02:22:29;;;;;;;27.03;16.93;;;20.30;99.90;;;;;;4977064;28;20205;-82
2022/07/02 02:24:56;;;;;;;24.70;17.57;;;20.30;99.90;;;;;;4963630;28;20206;-79
2022/07/02 02:27:22;;;;;;;21.70;16.33;;;20.30;99.90;;;;;;4981399;28;20300;-85
2022/07/02 02:29:49;;;;;;;21.00;16.80;;;20.30;99.90;;;;;;4959329;28;20215;-86
2022/07/02 02:32:16;;;;;;;21.73;17.10;;;20.30;99.90;;;;;;4975107;28;20214;-89
2022/07/02 02:34:43;;;;;;;24.17;17.63;;;20.20;99.90;;;;;;4975818;28;20193;-90
2022/07/02 02:37:10;;;;;;;26.33;18.00;;;20.20;99.90;;;;;;4976996;28;20569;-87
2022/07/02 02:39:37;;;;;;;24.00;17.43;;;20.20;99.90;;;;;;4977598;28;20512;-83
2022/07/02 02:42:04;;;;;;;25.03;17.30;;;20.30;99.90;;;;;;4973568;28;20228;-82
2022/07/02 02:44:31;;;;;;;23.00;17.57;;;20.30;99.90;;;;;;4985347;28;20202;-85
2022/07/02 02:46:58;;;;;;;23.07;17.53;;;20.30;99.90;;;;;;4968449;28;20387;-84
2022/07/02 02:49:25;;;;;;;26.67;18.60;;;20.30;99.90;;;;;;4980812;28;20224;-87
2022/07/02 02:51:52;;;;;;;24.23;18.73;;;20.30;99.90;;;;;;4960650;28;20680;-89
2022/07/02 02:54:19;;;;;;;26.63;18.47;;;20.20;99.90;;;;;;4959048;28;20196;-87
2022/07/02 02:56:46;;;;;;;26.77;19.13;;;20.20;99.90;;;;;;4976398;28;20228;-88
2022/07/02 02:59:12;;;;;;;25.67;18.97;;;20.20;99.90;;;;;;4958868;28;20197;-88
2022/07/02 03:01:39;;;;;;;27.37;18.90;;;20.20;99.90;;;;;;4975894;28;20269;-87
2022/07/02 03:04:06;;;;;;;30.87;19.27;;;20.20;99.90;;;;;;4976006;28;20221;-86
2022/07/02 03:06:33;;;;;;;24.37;18.23;;;20.30;99.90;;;;;;4974656;28;20212;-87
2022/07/02 03:09:00;;;;;;;24.47;17.87;;;20.30;99.90;;;;;;4958083;28;20208;-87
2022/07/02 03:11:27;;;;;;;24.60;18.33;;;20.30;99.90;;;;;;4958439;28;20309;-87
2022/07/02 03:13:54;;;;;;;24.43;19.17;;;20.30;99.90;;;;;;4974312;28;20316;-87
2022/07/02 03:16:21;;;;;;;24.67;18.53;;;20.40;99.90;;;;;;4958367;28;20206;-87
2022/07/02 03:18:48;;;;;;;26.83;18.50;;;20.40;99.90;;;;;;4974566;28;20578;-87
2022/07/02 03:21:15;;;;;;;27.33;19.50;;;20.40;99.90;;;;;;4958727;28;20208;-78
2022/07/02 03:23:42;;;;;;;25.87;19.13;;;20.40;99.90;;;;;;4975758;28;20200;-77
2022/07/02 03:26:09;;;;;;;27.97;20.27;;;20.40;99.90;;;;;;4958445;28;20208;-87
2022/07/02 03:28:36;;;;;;;27.10;19.73;;;20.30;99.90;;;;;;4958364;28;20217;-86
2022/07/02 03:31:03;;;;;;;25.00;19.60;;;20.30;99.90;;;;;;4975282;28;20208;-86
2022/07/02 03:33:30;;;;;;;29.30;20.43;;;20.30;99.90;;;;;;4958516;28;20201;-85
2022/07/02 03:35:59;;;;;;;26.70;20.30;;;20.30;99.90;;;;;;4974208;28;20204;-88
2022/07/02 03:38:27;;;;;;;26.73;19.57;;;20.30;99.90;;;;;;4974326;28;20205;-88
2022/07/02 03:40:54;;;;;;;29.97;22.13;;;20.30;99.90;;;;;;4973873;28;20197;-86
2022/07/02 03:43:21;;;;;;;27.30;20.43;;;20.40;99.90;;;;;;4958011;28;20201;-76
2022/07/02 03:45:48;;;;;;;29.90;22.23;;;20.40;99.90;;;;;;4975078;28;20349;-75
2022/07/02 03:48:17;;;;;;;30.53;21.63;;;20.50;99.90;;;;;;4975028;28;20197;-78
2022/07/02 03:50:44;;;;;;;36.50;23.73;;;20.50;99.90;;;;;;4957481;28;20219;-80
2022/07/02 03:53:13;;;;;;;32.27;23.17;;;20.50;99.90;;;;;;4957465;28;20729;-78
2022/07/02 03:55:40;;;;;;;33.57;23.37;;;20.40;99.90;;;;;;4973725;28;20300;-81
2022/07/02 03:58:07;;;;;;;32.13;23.37;;;20.40;99.90;;;;;;4973561;28;20232;-75
2022/07/02 04:00:33;;;;;;;32.13;21.77;;;20.30;99.90;;;;;;4957627;28;20643;-76
2022/07/02 04:03:00;;;;;;;33.00;21.27;;;20.20;99.90;;;;;;4973641;28;20292;-77
2022/07/02 04:05:28;;;;;;;30.10;20.87;;;20.10;99.90;;;;;;4974872;28;20192;-77
2022/07/02 04:07:55;;;;;;;29.83;20.17;;;20.10;99.90;;;;;;4957408;28;20204;-75
2022/07/02 04:10:21;;;;;;;28.87;19.53;;;20.10;99.90;;;;;;4957746;28;20200;-74
2022/07/02 04:12:49;;;;;;;30.83;19.83;;;20.00;99.90;;;;;;4973116;28;20230;-74
2022/07/02 04:15:16;;;;;;;30.07;20.87;;;19.90;99.90;;;;;;4974637;28;20185;-75
2022/07/02 04:17:44;;;;;;;29.67;20.77;;;19.90;99.90;;;;;;4973417;28;20289;-74
2022/07/02 04:20:11;;;;;;;29.87;20.07;;;20.00;99.90;;;;;;4974351;28;20190;-74
2022/07/02 04:22:38;;;;;;;27.17;18.73;;;20.00;99.90;;;;;;4974400;28;20209;-76
2022/07/02 04:25:05;;;;;;;31.33;19.03;;;20.00;99.90;;;;;;4957279;28;20292;-76
2022/07/02 04:27:32;;;;;;;28.23;17.53;;;19.90;99.90;;;;;;4973182;28;20197;-77
2022/07/02 04:29:59;;;;;;;24.10;16.87;;;20.00;99.90;;;;;;4957179;28;20292;-77
2022/07/02 04:32:32;;;;;;;23.70;15.10;;;19.90;99.90;;;;;;4956963;28;20257;-75
2022/07/02 04:34:59;;;;;;;21.90;14.60;;;19.80;99.90;;;;;;4974853;28;20201;-77
2022/07/02 04:37:26;;;;;;;28.53;16.17;;;19.60;99.90;;;;;;4975853;28;20248;-80
2022/07/02 04:39:53;;;;;;;23.23;15.90;;;19.50;99.90;;;;;;4975187;28;20197;-75
2022/07/02 04:42:20;;;;;;;25.07;14.53;;;19.50;99.90;;;;;;4973209;28;20193;-75
2022/07/02 04:44:47;;;;;;;22.97;14.10;;;19.50;99.90;;;;;;4957460;28;20189;-74
2022/07/02 04:47:14;;;;;;;26.17;14.73;;;19.50;99.90;;;;;;4974592;28;20778;-76
2022/07/02 04:49:41;;;;;;;22.47;13.87;;;19.40;99.90;;;;;;4974041;28;20281;-76
2022/07/02 04:52:08;;;;;;;22.10;12.83;;;19.40;99.90;;;;;;4972802;28;20226;-76
2022/07/02 04:54:35;;;;;;;19.10;12.63;;;19.50;99.90;;;;;;4974261;28;20193;-83
2022/07/02 04:57:02;;;;;;;19.07;11.60;;;19.50;99.90;;;;;;4974301;28;20201;-84
2022/07/02 04:59:29;;;;;;;17.90;10.50;;;19.50;99.90;;;;;;4974557;28;20197;-84
2022/07/02 05:02:03;;;;;;;15.40;9.73;;;19.50;99.90;;;;;;4974473;28;20277;-76
2022/07/02 05:04:30;;;;;;;16.30;9.77;;;19.60;99.90;;;;;;4956947;28;20209;-76
2022/07/02 05:06:57;;;;;;;13.40;9.70;;;19.60;99.90;;;;;;4974010;28;20537;-76
2022/07/02 05:09:24;;;;;;;13.00;9.17;;;19.60;99.90;;;;;;4973196;28;20205;-76
2022/07/02 05:11:51;;;;;;;13.40;9.80;;;19.50;99.90;;;;;;4975196;28;20257;-89
2022/07/02 05:14:18;;;;;;;14.97;10.00;;;19.50;99.90;;;;;;4976677;28;20396;-89
2022/07/02 05:16:45;;;;;;;12.43;9.90;;;19.50;99.90;;;;;;4978038;28;20738;-76
2022/07/02 05:19:12;;;;;;;13.50;10.50;;;19.50;99.90;;;;;;4960233;28;20373;-76
2022/07/02 05:21:41;;;;;;;14.03;10.17;;;19.60;99.90;;;;;;4976550;28;20236;-78
2022/07/02 05:24:08;;;;;;;16.17;10.23;;;19.50;99.90;;;;;;4960258;28;20203;-78
2022/07/02 05:26:35;;;;;;;14.90;9.93;;;19.50;99.90;;;;;;4976501;28;20198;-77
2022/07/02 05:29:03;;;;;;;15.37;9.90;;;19.60;99.90;;;;;;4960593;28;20603;-77
2022/07/02 05:31:30;;;;;;;13.27;9.30;;;19.60;99.90;;;;;;4960068;28;20237;-78
2022/07/02 05:33:57;;;;;;;12.20;9.13;;;19.70;99.90;;;;;;4976055;28;20640;-77
2022/07/02 05:36:24;;;;;;;12.93;9.40;;;19.80;99.90;;;;;;4976647;28;20197;-77
2022/07/02 05:38:50;;;;;;;12.70;9.20;;;19.80;99.90;;;;;;4960016;28;20308;-77
2022/07/02 05:41:17;;;;;;;13.20;9.20;;;19.90;99.90;;;;;;4960127;28;20493;-77
2022/07/02 05:43:44;;;;;;;12.77;9.40;;;20.00;99.90;;;;;;4960140;28;20201;-77
2022/07/02 05:46:11;;;;;;;12.20;9.27;;;20.00;99.90;;;;;;4975967;28;20249;-75
2022/07/02 05:48:38;;;;;;;12.67;9.23;;;20.00;99.90;;;;;;4959708;28;20189;-80
2022/07/02 05:51:05;;;;;;;12.93;8.90;;;20.10;99.90;;;;;;4959784;28;20197;-77
2022/07/02 05:53:32;;;;;;;18.07;10.20;;;19.90;99.90;;;;;;4977056;28;20316;-77
2022/07/02 05:55:59;;;;;;;13.30;9.63;;;19.90;99.90;;;;;;4944071;28;20202;-76
2022/07/02 05:58:26;;;;;;;15.60;10.53;;;19.90;99.90;;;;;;4977129;28;20260;-77
2022/07/02 06:00:54;;;;;;;14.80;10.13;;;20.00;99.90;;;;;;4959565;28;20197;-77
2022/07/02 06:03:21;;;;;;;16.50;11.23;;;20.00;99.90;;;;;;4975718;28;20296;-77
2022/07/02 06:08:34;;;;;;;15.20;11.10;;;19.80;99.90;;;;;;4977446;28;20264;-76
2022/07/02 06:11:02;;;;;;;17.20;11.23;;;19.70;99.90;;;;;;4960044;28;20750;-89
2022/07/02 06:13:29;;;;;;;17.97;11.30;;;19.60;99.90;;;;;;4976098;28;20237;-82
2022/07/02 06:15:56;;;;;;;18.27;11.80;;;19.50;99.90;;;;;;4959816;28;20295;-82
2022/07/02 06:18:23;;;;;;;14.80;10.53;;;19.50;99.90;;;;;;4977362;28;20274;-83
2022/07/02 06:20:51;;;;;;;16.23;10.27;;;19.60;99.90;;;;;;4966260;28;20201;-81
2022/07/02 06:23:21;;;;;;;13.07;9.47;;;19.60;99.90;;;;;;4977177;28;20205;-89
2022/07/02 06:25:49;;;;;;;15.77;9.87;;;19.80;99.90;;;;;;4976913;28;20281;-86
2022/07/02 06:28:17;;;;;;;11.93;9.00;;;19.60;99.90;;;;;;4975472;28;20651;-81
2022/07/02 06:30:44;;;;;;;13.07;9.33;;;19.60;99.90;;;;;;4976631;28;20205;-81
2022/07/02 06:33:11;;;;;;;11.07;8.10;;;19.50;99.90;;;;;;4959019;28;20235;-83
2022/07/02 06:35:40;;;;;;;11.83;8.57;;;19.40;99.90;;;;;;4959218;28;20197;-85
2022/07/02 06:38:07;;;;;;;11.90;8.00;;;19.50;99.90;;;;;;4959009;28;20565;-85
2022/07/02 06:40:37;;;;;;;12.80;7.27;;;19.40;99.90;;;;;;4958954;28;20292;-87
2022/07/02 06:43:04;;;;;;;10.03;6.60;;;19.40;99.90;;;;;;4974741;28;20726;-83
2022/07/02 06:45:31;;;;;;;13.80;6.90;;;19.40;99.90;;;;;;4976429;28;20280;-83
2022/07/02 06:47:58;;;;;;;9.30;5.97;;;19.50;99.90;;;;;;4958566;28;20221;-76
2022/07/02 06:50:27;;;;;;;7.77;5.77;;;19.50;99.90;;;;;;4958826;28;20662;-77
2022/07/02 06:53:00;;;;;;;8.33;5.67;;;19.50;99.90;;;;;;4974891;28;20242;-76
2022/07/02 06:55:27;;;;;;;7.67;5.13;;;19.50;99.90;;;;;;4958514;28;20300;-82
2022/07/02 06:57:54;;;;;;;9.20;5.37;;;19.70;99.90;;;;;;4973760;28;20223;-76
2022/07/02 07:00:23;;;;;;;7.83;5.60;;;19.80;99.90;;;;;;4958605;28;20221;-76
2022/07/02 07:02:53;;;;;;;6.73;4.67;;;19.80;99.90;;;;;;4958628;28;20190;-76
2022/07/02 07:05:22;;;;;;;10.17;5.00;;;19.70;99.90;;;;;;4958699;28;20702;-83
2022/07/02 07:07:48;;;;;;;6.40;4.27;;;19.60;99.90;;;;;;4958595;28;20198;-75
2022/07/02 07:10:15;;;;;;;6.23;4.10;;;19.60;99.90;;;;;;4976133;28;20190;-77
2022/07/02 07:12:42;;;;;;;5.20;3.97;;;19.60;99.90;;;;;;4975502;28;20237;-77
2022/07/02 07:15:10;;;;;;;5.97;4.23;;;19.40;99.90;;;;;;4958321;28;20201;-77
2022/07/02 07:17:37;;;;;;;4.87;3.90;;;19.30;99.90;;;;;;4958480;28;20214;-75
2022/07/02 07:20:05;;;;;;;4.53;3.80;;;19.40;99.90;;;;;;4958309;28;20614;-76
2022/07/02 07:22:32;;;;;;;4.60;3.70;;;19.50;99.90;;;;;;4958047;28;20665;-78
2022/07/02 07:24:59;;;;;;;5.70;3.57;;;19.60;99.90;;;;;;4958192;28;20597;-76
2022/07/02 07:27:26;;;;;;;4.57;3.63;;;19.80;99.90;;;;;;4958002;28;20202;-80
2022/07/02 07:29:53;;;;;;;11.63;5.40;;;19.70;99.90;;;;;;4958164;28;20288;-82
2022/07/02 07:32:20;;;;;;;8.83;5.43;;;19.70;99.90;;;;;;4959158;28;20268;-83
2022/07/02 07:34:47;;;;;;;9.97;6.50;;;19.60;99.90;;;;;;4957704;28;20239;-78
2022/07/02 07:37:15;;;;;;;10.50;6.80;;;19.70;99.90;;;;;;4958283;28;20299;-81
2022/07/02 07:39:42;;;;;;;8.10;5.90;;;19.70;99.90;;;;;;4958092;28;20201;-78
2022/07/02 07:42:09;;;;;;;9.67;6.67;;;19.80;99.90;;;;;;4957789;28;20650;-76
2022/07/02 07:44:39;;;;;;;10.20;6.80;;;19.70;99.90;;;;;;4957826;28;20268;-76
2022/07/02 07:47:07;;;;;;;11.47;6.50;;;19.60;99.90;;;;;;4975012;28;20674;-83
2022/07/02 07:49:34;;;;;;;9.97;6.80;;;19.60;99.90;;;;;;4975309;28;20224;-78
2022/07/02 07:52:00;;;;;;;9.57;6.43;;;19.50;99.90;;;;;;4976834;28;20225;-77
2022/07/02 07:54:27;;;;;;;10.70;6.43;;;19.30;99.90;;;;;;4957826;28;20709;-76
2022/07/02 07:56:54;;;;;;;9.77;6.40;;;19.30;99.90;;;;;;4957636;28;20597;-78
2022/07/02 07:59:22;;;;;;;9.90;6.50;;;19.40;99.90;;;;;;4957775;28;20210;-76
2022/07/02 08:01:49;;;;;;;13.87;6.83;;;19.30;99.90;;;;;;4973574;28;20220;-80
2022/07/02 08:04:16;;;;;;;10.73;6.27;;;19.30;99.90;;;;;;4957592;28;20193;-77
2022/07/02 08:06:43;;;;;;;10.40;5.97;;;19.20;99.90;;;;;;4957488;28;20237;-79
2022/07/02 08:09:10;;;;;;;9.27;5.80;;;19.30;99.90;;;;;;4957333;28;20284;-82
2022/07/02 08:11:39;;;;;;;14.13;6.57;;;19.30;99.90;;;;;;4974771;28;20279;-80
2022/07/02 08:14:06;;;;;;;9.97;6.67;;;19.40;99.90;;;;;;4956926;28;20275;-78
2022/07/02 08:16:33;;;;;;;13.40;7.67;;;19.40;99.90;;;;;;4957262;28;20289;-85
2022/07/02 08:19:01;;;;;;;12.57;8.20;;;19.30;99.90;;;;;;4957602;28;20190;-81
2022/07/02 08:21:28;;;;;;;11.63;8.10;;;19.20;99.90;;;;;;4957573;28;20288;-86
2022/07/02 08:23:56;;;;;;;9.73;7.70;;;19.30;99.90;;;;;;4974323;28;20660;-85
2022/07/02 08:26:23;;;;;;;11.90;8.30;;;19.30;99.90;;;;;;4974863;28;20252;-84
2022/07/02 08:28:52;;;;;;;10.63;7.60;;;19.40;99.90;;;;;;4957508;28;20208;-81
2022/07/02 08:31:22;;;;;;;12.63;7.87;;;19.40;99.90;;;;;;4957413;28;20288;-74
2022/07/02 08:33:49;;;;;;;13.47;8.10;;;19.30;99.90;;;;;;4957127;28;20218;-77
2022/07/02 08:36:16;;;;;;;10.87;7.47;;;19.20;99.90;;;;;;4957166;28;20237;-75
2022/07/02 08:38:43;;;;;;;10.17;7.23;;;19.10;99.90;;;;;;4956754;28;20636;-76
2022/07/02 08:41:13;;;;;;;10.70;7.30;;;19.10;99.90;;;;;;4957200;28;20683;-76
2022/07/02 08:43:41;;;;;;;16.33;8.93;;;19.30;99.90;;;;;;4956813;28;20292;-74
2022/07/02 08:46:09;;;;;;;19.97;8.07;;;19.50;99.90;;;;;;4955929;28;20315;-76
2022/07/02 08:48:40;;;;;;;14.27;8.40;;;19.50;99.90;;;;;;4956932;28;20302;-75
2022/07/02 08:51:10;;;;;;;14.60;8.47;;;19.70;99.90;;;;;;4957118;28;20301;-74
2022/07/02 08:53:39;;;;;;;12.47;8.80;;;19.60;99.90;;;;;;4956888;28;20324;-74
2022/07/02 08:56:07;;;;;;;13.37;9.50;;;19.60;99.90;;;;;;4956713;28;20284;-74
2022/07/02 08:58:36;;;;;;;14.63;9.30;;;19.70;99.90;;;;;;4956811;28;20206;-76
2022/07/02 09:01:05;;;;;;;21.60;10.63;;;19.60;99.90;;;;;;4956886;28;20236;-75
2022/07/02 09:03:32;;;;;;;14.77;9.23;;;19.70;99.90;;;;;;4973328;28;20213;-92
2022/07/02 09:06:02;;;;;;;14.10;10.03;;;19.80;99.90;;;;;;4956665;28;20292;-77
2022/07/02 09:08:31;;;;;;;14.37;9.83;;;19.60;99.90;;;;;;4956682;28;20560;-76
2022/07/02 09:11:00;;;;;;;15.97;9.77;;;19.60;99.90;;;;;;4974161;28;20561;-77
2022/07/02 09:13:28;;;;;;;17.40;10.23;;;19.60;99.90;;;;;;4956647;28;20633;-77
2022/07/02 09:15:56;;;;;;;15.37;10.23;;;19.60;99.90;;;;;;4974033;28;20193;-78
2022/07/02 09:18:23;;;;;;;14.67;10.53;;;19.40;99.90;;;;;;4974091;28;20358;-77
2022/07/02 09:20:50;;;;;;;18.23;10.70;;;19.40;99.90;;;;;;4956886;28;20190;-75
2022/07/02 09:23:22;;;;;;;13.50;9.87;;;19.40;99.90;;;;;;4974215;28;20208;-78
2022/07/02 09:25:50;;;;;;;15.30;10.33;;;19.50;99.90;;;;;;4957098;28;20206;-76
2022/07/02 09:28:18;;;;;;;15.33;10.87;;;19.60;99.90;;;;;;4972812;28;20201;-75
2022/07/02 09:30:45;;;;;;;16.37;11.07;;;19.60;99.90;;;;;;4972591;28;20201;-75
2022/07/02 09:33:35;;;;;;;16.00;11.00;;;19.60;99.90;;;;;;4956593;28;20218;-76
2022/07/02 09:36:11;;;;;;;16.17;11.07;;;19.40;99.90;;;;;;4972701;28;20198;-77
2022/07/02 09:38:46;;;;;;;15.57;11.47;;;19.30;99.90;;;;;;4956750;28;20650;-75
2022/07/02 09:41:18;;;;;;;19.07;11.90;;;19.20;99.90;;;;;;4973753;28;20189;-76
2022/07/02 09:43:46;;;;;;;18.13;10.83;;;19.40;99.90;;;;;;4957764;28;20190;-75
2022/07/02 09:46:17;;;;;;;15.13;10.67;;;19.50;99.90;;;;;;4973648;28;20275;-75
2022/07/02 09:48:46;;;;;;;15.50;10.20;;;19.70;99.90;;;;;;4973552;28;20292;-74
2022/07/02 09:51:15;;;;;;;19.03;10.87;;;19.60;99.90;;;;;;4972623;28;20229;-74
2022/07/02 09:53:54;;;;;;;15.70;10.27;;;19.70;99.90;;;;;;4956502;28;20316;-77
2022/07/02 09:56:23;;;;;;;10.23;9.10;;;19.70;99.90;;;;;;4972330;28;20592;-77
2022/07/02 09:58:51;;;;;;;10.37;8.00;;;19.60;99.90;;;;;;4979976;28;20197;-81
2022/07/02 10:01:22;;;;;;;9.87;8.23;;;19.70;99.90;;;;;;4960317;28;20197;-78
2022/07/02 10:03:52;;;;;;;11.80;8.13;;;19.60;99.90;;;;;;4959502;28;20682;-76
2022/07/02 10:06:20;;;;;;;10.23;8.20;;;19.70;99.90;;;;;;4960925;28;20228;-74
2022/07/02 10:08:53;;;;;;;9.03;7.43;;;19.60;99.90;;;;;;4960282;28;20201;-75
2022/07/02 10:11:21;;;;;;;10.87;7.03;;;19.90;99.90;;;;;;4960156;28;20209;-77
2022/07/02 10:13:48;;;;;;;11.80;6.60;;;20.00;99.90;;;;;;4959452;28;20276;-75
2022/07/02 10:16:19;;;;;;;9.00;6.00;;;20.20;99.90;;;;;;4977382;28;20193;-78
2022/07/02 10:18:48;;;;;;;8.20;4.57;;;20.20;99.90;;;;;;4977657;28;20201;-76
2022/07/02 10:21:16;;;;;;;4.53;3.70;;;20.20;99.90;;;;;;4963221;28;20725;-91
2022/07/02 10:23:44;;;;;;;4.47;3.23;;;20.10;99.90;;;;;;4960352;28;20229;-89
2022/07/02 10:26:13;;;;;;;3.00;2.70;;;20.10;99.90;;;;;;4961871;28;20209;-90
2022/07/02 10:28:40;;;;;;;4.10;2.80;;;20.10;99.90;;;;;;4961042;28;20211;-85
2022/07/02 10:31:15;;;;;;;4.90;3.00;;;20.20;99.90;;;;;;4971071;28;20221;-86
2022/07/02 10:34:05;;;;;;;3.47;2.77;;;20.20;99.90;;;;;;4966337;28;20359;-74
2022/07/02 10:36:32;;;;;;;3.30;3.00;;;20.10;99.90;;;;;;4959496;28;20301;-75
2022/07/02 10:39:00;;;;;;;7.13;3.67;;;20.20;99.90;;;;;;4959553;28;20285;-74
2022/07/02 10:41:32;;;;;;;4.30;3.20;;;20.00;99.90;;;;;;4959335;28;20718;-75
2022/07/02 10:44:00;;;;;;;2.83;2.60;;;20.00;99.90;;;;;;4959100;28;20244;-73
2022/07/02 10:46:33;;;;;;;3.37;3.07;;;20.00;99.90;;;;;;4974984;28;20249;-73
2022/07/02 10:49:00;;;;;;;3.00;2.80;;;20.00;99.90;;;;;;4958817;28;20225;-74
2022/07/02 10:51:29;;;;;;;3.27;2.97;;;20.10;99.90;;;;;;4976825;28;20208;-79
2022/07/02 10:54:07;;;;;;;3.20;2.90;;;20.10;99.90;;;;;;4976830;28;20276;-71
2022/07/02 10:56:54;;;;;;;3.57;3.03;;;20.10;99.90;;;;;;4958604;28;20690;-74
2022/07/02 10:59:24;;;;;;;4.70;3.10;;;20.10;99.90;;;;;;4958989;28;20288;-79
2022/07/02 11:02:00;;;;;;;3.23;2.90;;;20.10;99.90;;;;;;4976286;28;20206;-73
2022/07/02 11:04:27;;;;;;;3.40;3.10;;;20.10;99.90;;;;;;4958733;28;20299;-73
2022/07/02 11:07:12;;;;;;;4.73;3.10;;;19.90;99.90;;;;;;4958567;28;20193;-74
2022/07/02 11:09:58;;;;;;;3.30;2.80;;;19.90;99.90;;;;;;4958205;28;20212;-72
2022/07/02 11:12:43;;;;;;;3.23;2.90;;;19.90;99.90;;;;;;4958254;28;20229;-72
2022/07/02 11:15:31;;;;;;;4.40;3.50;;;20.10;99.90;;;;;;4958641;28;20316;-73
2022/07/02 11:18:04;;;;;;;5.07;3.17;;;20.20;99.90;;;;;;4958504;28;20185;-73
2022/07/02 11:20:36;;;;;;;4.03;2.70;;;20.40;99.90;;;;;;4958163;28;20272;-71
2022/07/02 11:23:04;;;;;;;4.23;2.70;;;20.50;99.90;;;;;;4958231;28;20207;-72
2022/07/02 11:25:32;;;;;;;4.40;2.70;;;20.50;99.90;;;;;;4975513;28;20216;-71
2022/07/02 11:28:02;;;;;;;5.53;2.57;;;20.90;99.90;;;;;;4958325;28;20212;-72
2022/07/02 11:30:32;;;;;;;3.00;2.30;;;21.10;99.90;;;;;;4958135;28;20223;-70
2022/07/02 11:32:59;;;;;;;2.50;2.07;;;21.20;99.90;;;;;;4957924;28;20566;-70
2022/07/02 11:35:27;;;;;;;7.70;2.20;;;21.50;99.90;;;;;;4958427;28;20212;-72
2022/07/02 11:38:00;;;;;;;5.53;2.23;;;21.70;99.90;;;;;;4975656;28;20190;-73
2022/07/02 11:40:26;;;;;;;3.63;2.20;;;21.80;99.90;;;;;;4975456;28;20200;-74
2022/07/02 11:42:53;;;;;;;2.73;2.00;;;21.50;99.90;;;;;;4958010;28;20288;-82
2022/07/02 11:45:21;;;;;;;5.43;2.50;;;21.40;99.90;;;;;;4957820;28;20229;-72
2022/07/02 11:47:49;;;;;;;4.57;2.87;;;21.50;99.90;;;;;;4957755;28;20225;-72
2022/07/02 11:50:38;;;;;;;4.17;2.60;;;21.30;99.90;;;;;;4957722;28;20211;-72
2022/07/02 11:53:06;;;;;;;5.20;2.90;;;21.20;99.90;;;;;;4957584;28;20197;-71
2022/07/02 11:55:33;;;;;;;6.13;3.17;;;21.20;99.90;;;;;;4957779;28;20252;-73
2022/07/02 11:58:00;;;;;;;5.77;3.23;;;21.50;99.90;;;;;;4958309;28;20215;-72
2022/07/02 12:00:31;;;;;;;5.03;2.70;;;21.30;99.90;;;;;;4957772;28;20209;-71
2022/07/02 12:03:10;;;;;;;4.20;2.80;;;21.00;99.90;;;;;;4957605;28;20197;-71
2022/07/02 12:05:37;;;;;;;3.47;2.63;;;20.80;99.90;;;;;;4960310;28;20208;-73
2022/07/02 12:08:07;;;;;;;3.73;2.73;;;20.90;99.90;;;;;;4959617;28;20296;-72
2022/07/02 12:10:42;;;;;;;5.37;3.00;;;21.00;99.90;;;;;;4957804;28;20205;-71
2022/07/02 12:13:10;;;;;;;6.83;2.70;;;21.10;99.90;;;;;;4975399;28;20604;-74
2022/07/02 12:15:46;;;;;;;6.50;2.60;;;21.10;99.90;;;;;;4957920;28;20208;-73
2022/07/02 12:18:18;;;;;;;6.13;3.00;;;21.20;99.90;;;;;;4957883;28;20205;-80
2022/07/02 12:20:46;;;;;;;3.43;2.50;;;21.60;99.90;;;;;;4974782;28;20284;-72
2022/07/02 12:23:16;;;;;;;5.70;2.60;;;21.80;99.90;;;;;;4957354;28;20574;-74
2022/07/02 12:25:45;;;;;;;4.07;2.83;;;21.70;99.90;;;;;;4957326;28;20214;-76
2022/07/02 12:30:57;;;;;;;3.40;2.30;;;21.00;99.90;;;;;;4974560;28;20620;-75
2022/07/02 12:33:35;;;;;;;4.33;2.73;;;21.20;99.90;;;;;;4957074;28;20296;-71
2022/07/02 12:36:05;;;;;;;3.57;2.63;;;20.80;99.90;;;;;;4957293;28;20204;-70
2022/07/02 12:38:43;;;;;;;4.80;2.60;;;20.80;99.90;;;;;;4957011;28;20193;-72
2022/07/02 12:41:11;;;;;;;2.70;2.20;;;20.70;99.90;;;;;;4957445;28;20260;-70
2022/07/02 12:43:37;;;;;;;3.43;2.43;;;21.00;99.90;;;;;;4957230;28;20208;-71
2022/07/02 12:46:06;;;;;;;5.37;2.70;;;20.80;99.90;;;;;;4974226;28;20236;-72
2022/07/02 12:48:44;;;;;;;4.47;2.50;;;20.90;99.90;;;;;;4957280;28;20240;-70
2022/07/02 12:51:12;;;;;;;3.60;2.40;;;21.10;99.90;;;;;;4974344;28;20632;-72